sensor_id;sensor_type;location;lat;lon;timestamp;temperature;humidity
46458;DHT22;32155;54.076;12.092;2022-07-22T02:33:15;18.80;99.90
46458;DHT22;32155;54.076;12.092;2022-07-22T03:31:41;19.30;99.90
46458;DHT22;32155;54.076;12.092;2022-07-22T03:41:02;19.20;99.90
46458;DHT22;32155;54.076;12.092;2022-07-22T03:56:41;19.40;99.90
46458;DHT22;32155;54.076;12.092;2022-07-22T04:02:12;19.50;99.90
46458;DHT22;32155;54.076;12.092;2022-07-22T04:24:26;19.50;99.90
46458;DHT22;32155;54.076;12.092;2022-07-22T04:52:14;19.10;99.90
46458;DHT22;32155;54.076;12.092;2022-07-22T04:54:40;19.00;99.90
46458;DHT22;32155;54.076;12.092;2022-07-22T04:57:05;18.90;99.90
46458;DHT22;32155;54.076;12.092;2022-07-22T04:59:31;18.90;99.90
46458;DHT22;32155;54.076;12.092;2022-07-22T05:01:56;18.80;99.90
46458;DHT22;32155;54.076;12.092;2022-07-22T05:04:22;18.70;99.90
46458;DHT22;32155;54.076;12.092;2022-07-22T05:06:47;18.60;99.90
46458;DHT22;32155;54.076;12.092;2022-07-22T05:09:15;18.60;99.90
46458;DHT22;32155;54.076;12.092;2022-07-22T05:11:41;18.70;99.90
46458;DHT22;32155;54.076;12.092;2022-07-22T05:14:06;18.60;99.90
46458;DHT22;32155;54.076;12.092;2022-07-22T05:16:32;18.60;99.90
46458;DHT22;32155;54.076;12.092;2022-07-22T05:18:57;18.70;99.90
46458;DHT22;32155;54.076;12.092;2022-07-22T05:21:23;18.60;99.90
46458;DHT22;32155;54.076;12.092;2022-07-22T05:23:48;18.50;99.90
46458;DHT22;32155;54.076;12.092;2022-07-22T05:26:14;18.50;99.90
46458;DHT22;32155;54.076;12.092;2022-07-22T05:28:39;18.50;99.90
46458;DHT22;32155;54.076;12.092;2022-07-22T05:31:05;18.40;99.90
46458;DHT22;32155;54.076;12.092;2022-07-22T05:33:30;18.40;99.90
46458;DHT22;32155;54.076;12.092;2022-07-22T05:35:59;18.40;99.90
46458;DHT22;32155;54.076;12.092;2022-07-22T05:38:24;18.50;99.90
46458;DHT22;32155;54.076;12.092;2022-07-22T05:40:50;18.50;99.90
46458;DHT22;32155;54.076;12.092;2022-07-22T05:43:15;18.40;99.90
46458;DHT22;32155;54.076;12.092;2022-07-22T05:45:41;18.40;99.90
46458;DHT22;32155;54.076;12.092;2022-07-22T05:48:06;18.40;99.90
46458;DHT22;32155;54.076;12.092;2022-07-22T05:50:32;18.30;99.90
46458;DHT22;32155;54.076;12.092;2022-07-22T05:53:00;18.40;99.90
46458;DHT22;32155;54.076;12.092;2022-07-22T05:55:25;18.40;99.90
46458;DHT22;32155;54.076;12.092;2022-07-22T05:57:54;18.50;99.90
46458;DHT22;32155;54.076;12.092;2022-07-22T06:00:25;18.40;99.90
46458;DHT22;32155;54.076;12.092;2022-07-22T06:02:50;18.60;99.90
46458;DHT22;32155;54.076;12.092;2022-07-22T06:05:19;18.70;99.90
46458;DHT22;32155;54.076;12.092;2022-07-22T06:07:45;18.80;99.90
46458;DHT22;32155;54.076;12.092;2022-07-22T06:10:10;18.70;99.90
46458;DHT22;32155;54.076;12.092;2022-07-22T06:12:36;18.80;99.90
46458;DHT22;32155;54.076;12.092;2022-07-22T06:15:01;18.80;99.90
46458;DHT22;32155;54.076;12.092;2022-07-22T06:17:27;18.80;99.90
46458;DHT22;32155;54.076;12.092;2022-07-22T06:19:52;18.80;99.90
46458;DHT22;32155;54.076;12.092;2022-07-22T06:22:21;18.80;99.90
46458;DHT22;32155;54.076;12.092;2022-07-22T06:24:47;18.90;99.90
46458;DHT22;32155;54.076;12.092;2022-07-22T06:27:13;19.00;99.90
46458;DHT22;32155;54.076;12.092;2022-07-22T06:29:38;19.00;99.90
46458;DHT22;32155;54.076;12.092;2022-07-22T06:32:08;19.30;99.90
46458;DHT22;32155;54.076;12.092;2022-07-22T06:34:37;19.40;99.90
46458;DHT22;32155;54.076;12.092;2022-07-22T06:37:03;19.60;99.90
46458;DHT22;32155;54.076;12.092;2022-07-22T06:39:28;19.70;99.90
46458;DHT22;32155;54.076;12.092;2022-07-22T06:41:54;19.90;99.90
46458;DHT22;32155;54.076;12.092;2022-07-22T06:44:22;20.20;99.90
46458;DHT22;32155;54.076;12.092;2022-07-22T06:46:47;20.30;99.90
46458;DHT22;32155;54.076;12.092;2022-07-22T06:49:15;20.30;99.90
46458;DHT22;32155;54.076;12.092;2022-07-22T06:51:41;20.90;99.90
46458;DHT22;32155;54.076;12.092;2022-07-22T06:54:06;21.00;99.90
46458;DHT22;32155;54.076;12.092;2022-07-22T06:56:32;21.50;99.90
46458;DHT22;32155;54.076;12.092;2022-07-22T06:58:57;22.10;99.90
46458;DHT22;32155;54.076;12.092;2022-07-22T07:01:25;22.30;99.90
46458;DHT22;32155;54.076;12.092;2022-07-22T07:03:51;22.10;99.90
46458;DHT22;32155;54.076;12.092;2022-07-22T07:06:16;21.90;99.90
46458;DHT22;32155;54.076;12.092;2022-07-22T07:08:42;21.60;99.90
46458;DHT22;32155;54.076;12.092;2022-07-22T07:11:08;21.40;99.90
46458;DHT22;32155;54.076;12.092;2022-07-22T07:13:33;21.10;99.90
46458;DHT22;32155;54.076;12.092;2022-07-22T07:15:59;21.10;99.90
46458;DHT22;32155;54.076;12.092;2022-07-22T07:18:27;21.20;99.90
46458;DHT22;32155;54.076;12.092;2022-07-22T07:20:55;21.20;99.90
46458;DHT22;32155;54.076;12.092;2022-07-22T07:23:20;21.00;99.90
46458;DHT22;32155;54.076;12.092;2022-07-22T07:25:46;21.00;99.90
46458;DHT22;32155;54.076;12.092;2022-07-22T07:28:12;20.80;99.90
46458;DHT22;32155;54.076;12.092;2022-07-22T07:30:37;21.00;99.90
46458;DHT22;32155;54.076;12.092;2022-07-22T07:33:05;21.20;99.90
46458;DHT22;32155;54.076;12.092;2022-07-22T07:35:31;21.40;99.90
46458;DHT22;32155;54.076;12.092;2022-07-22T07:37:58;21.30;99.90
46458;DHT22;32155;54.076;12.092;2022-07-22T07:40:24;20.90;99.90
46458;DHT22;32155;54.076;12.092;2022-07-22T07:42:50;20.90;99.90
46458;DHT22;32155;54.076;12.092;2022-07-22T07:45:15;20.90;99.90
46458;DHT22;32155;54.076;12.092;2022-07-22T07:47:41;20.80;99.90
46458;DHT22;32155;54.076;12.092;2022-07-22T07:50:07;20.70;99.90
46458;DHT22;32155;54.076;12.092;2022-07-22T07:52:39;20.90;99.90
46458;DHT22;32155;54.076;12.092;2022-07-22T07:55:06;21.00;99.90
46458;DHT22;32155;54.076;12.092;2022-07-22T07:57:34;21.20;99.90
46458;DHT22;32155;54.076;12.092;2022-07-22T07:59:59;21.40;99.90
46458;DHT22;32155;54.076;12.092;2022-07-22T08:02:27;21.30;99.90
46458;DHT22;32155;54.076;12.092;2022-07-22T08:04:52;21.10;99.90
46458;DHT22;32155;54.076;12.092;2022-07-22T08:07:18;21.00;99.90
46458;DHT22;32155;54.076;12.092;2022-07-22T08:09:43;21.10;99.90
46458;DHT22;32155;54.076;12.092;2022-07-22T08:12:11;20.90;99.90
46458;DHT22;32155;54.076;12.092;2022-07-22T08:14:37;20.80;99.90
46458;DHT22;32155;54.076;12.092;2022-07-22T08:17:02;20.60;99.90
46458;DHT22;32155;54.076;12.092;2022-07-22T08:19:30;20.60;99.90
46458;DHT22;32155;54.076;12.092;2022-07-22T08:21:59;20.50;99.90
46458;DHT22;32155;54.076;12.092;2022-07-22T08:24:25;20.50;99.90
46458;DHT22;32155;54.076;12.092;2022-07-22T08:26:51;20.50;99.90
46458;DHT22;32155;54.076;12.092;2022-07-22T08:29:17;20.30;99.90
46458;DHT22;32155;54.076;12.092;2022-07-22T08:31:43;20.30;99.90
46458;DHT22;32155;54.076;12.092;2022-07-22T08:34:11;20.40;99.90
46458;DHT22;32155;54.076;12.092;2022-07-22T08:36:36;20.60;99.90
46458;DHT22;32155;54.076;12.092;2022-07-22T08:39:02;20.90;99.90
46458;DHT22;32155;54.076;12.092;2022-07-22T08:41:28;21.40;99.90
46458;DHT22;32155;54.076;12.092;2022-07-22T08:43:58;22.10;99.90
46458;DHT22;32155;54.076;12.092;2022-07-22T08:46:24;22.10;99.90
46458;DHT22;32155;54.076;12.092;2022-07-22T08:48:49;21.70;99.90
46458;DHT22;32155;54.076;12.092;2022-07-22T08:51:15;21.20;99.90
46458;DHT22;32155;54.076;12.092;2022-07-22T08:53:40;21.00;99.90
46458;DHT22;32155;54.076;12.092;2022-07-22T08:56:06;20.80;99.90
46458;DHT22;32155;54.076;12.092;2022-07-22T08:58:34;20.60;99.90
46458;DHT22;32155;54.076;12.092;2022-07-22T09:01:12;20.50;99.90
46458;DHT22;32155;54.076;12.092;2022-07-22T09:03:48;20.40;99.90
46458;DHT22;32155;54.076;12.092;2022-07-22T09:06:15;20.30;99.90
46458;DHT22;32155;54.076;12.092;2022-07-22T09:08:51;20.20;99.90
46458;DHT22;32155;54.076;12.092;2022-07-22T09:11:17;20.10;99.90
46458;DHT22;32155;54.076;12.092;2022-07-22T09:13:43;20.00;99.90
46458;DHT22;32155;54.076;12.092;2022-07-22T09:16:12;19.90;99.90
46458;DHT22;32155;54.076;12.092;2022-07-22T09:18:45;19.70;99.90
46458;DHT22;32155;54.076;12.092;2022-07-22T09:21:11;19.80;99.90
46458;DHT22;32155;54.076;12.092;2022-07-22T09:23:41;19.60;99.90
46458;DHT22;32155;54.076;12.092;2022-07-22T09:26:12;19.60;99.90
46458;DHT22;32155;54.076;12.092;2022-07-22T09:28:55;19.60;99.90
46458;DHT22;32155;54.076;12.092;2022-07-22T09:31:28;19.60;99.90
46458;DHT22;32155;54.076;12.092;2022-07-22T09:33:56;19.70;99.90
46458;DHT22;32155;54.076;12.092;2022-07-22T09:36:24;19.90;99.90
46458;DHT22;32155;54.076;12.092;2022-07-22T09:38:50;20.20;99.90
46458;DHT22;32155;54.076;12.092;2022-07-22T09:41:16;20.60;99.90
46458;DHT22;32155;54.076;12.092;2022-07-22T09:43:41;21.10;99.90
46458;DHT22;32155;54.076;12.092;2022-07-22T09:46:07;21.30;99.90
46458;DHT22;32155;54.076;12.092;2022-07-22T09:48:33;21.30;99.90
46458;DHT22;32155;54.076;12.092;2022-07-22T09:50:59;21.30;99.90
46458;DHT22;32155;54.076;12.092;2022-07-22T09:53:30;21.00;99.90
46458;DHT22;32155;54.076;12.092;2022-07-22T09:55:56;20.90;99.90
46458;DHT22;32155;54.076;12.092;2022-07-22T09:58:22;21.10;99.90
46458;DHT22;32155;54.076;12.092;2022-07-22T10:00:47;21.30;99.90
46458;DHT22;32155;54.076;12.092;2022-07-22T10:03:18;21.70;99.90
46458;DHT22;32155;54.076;12.092;2022-07-22T10:05:46;22.70;99.90
46458;DHT22;32155;54.076;12.092;2022-07-22T10:08:12;23.00;99.90
46458;DHT22;32155;54.076;12.092;2022-07-22T10:10:38;23.10;99.90
46458;DHT22;32155;54.076;12.092;2022-07-22T10:13:04;23.10;99.90
46458;DHT22;32155;54.076;12.092;2022-07-22T10:15:33;23.50;99.90
46458;DHT22;32155;54.076;12.092;2022-07-22T10:17:59;24.00;99.90
46458;DHT22;32155;54.076;12.092;2022-07-22T10:20:26;24.10;99.90
46458;DHT22;32155;54.076;12.092;2022-07-22T10:22:53;24.00;99.90
46458;DHT22;32155;54.076;12.092;2022-07-22T10:25:20;24.20;99.90
46458;DHT22;32155;54.076;12.092;2022-07-22T10:30:28;24.40;99.90
46458;DHT22;32155;54.076;12.092;2022-07-22T10:35:32;23.40;99.90
46458;DHT22;32155;54.076;12.092;2022-07-22T10:38:02;23.30;99.90
46458;DHT22;32155;54.076;12.092;2022-07-22T10:40:29;23.30;99.90
46458;DHT22;32155;54.076;12.092;2022-07-22T10:45:39;23.80;99.90
46458;DHT22;32155;54.076;12.092;2022-07-22T10:48:07;23.80;99.90
46458;DHT22;32155;54.076;12.092;2022-07-22T10:50:39;24.10;99.90
46458;DHT22;32155;54.076;12.092;2022-07-22T10:53:11;23.90;99.90
46458;DHT22;32155;54.076;12.092;2022-07-22T11:00:59;23.40;99.90
46458;DHT22;32155;54.076;12.092;2022-07-22T11:03:26;23.30;99.90
46458;DHT22;32155;54.076;12.092;2022-07-22T11:05:53;25.30;99.90
46458;DHT22;32155;54.076;12.092;2022-07-22T11:08:28;27.10;99.90
46458;DHT22;32155;54.076;12.092;2022-07-22T11:11:13;27.40;99.90
46458;DHT22;32155;54.076;12.092;2022-07-22T11:13:46;28.60;99.90
46458;DHT22;32155;54.076;12.092;2022-07-22T11:16:29;29.00;99.90
46458;DHT22;32155;54.076;12.092;2022-07-22T11:18:55;29.10;99.90
46458;DHT22;32155;54.076;12.092;2022-07-22T11:21:22;29.30;99.90
46458;DHT22;32155;54.076;12.092;2022-07-22T11:23:53;28.90;99.90
46458;DHT22;32155;54.076;12.092;2022-07-22T11:26:34;29.80;99.90
46458;DHT22;32155;54.076;12.092;2022-07-22T11:29:03;30.40;99.90
46458;DHT22;32155;54.076;12.092;2022-07-22T11:31:29;31.20;99.90
46458;DHT22;32155;54.076;12.092;2022-07-22T11:34:04;30.30;99.90
46458;DHT22;32155;54.076;12.092;2022-07-22T11:36:31;29.60;99.90
46458;DHT22;32155;54.076;12.092;2022-07-22T11:38:59;28.90;99.90
46458;DHT22;32155;54.076;12.092;2022-07-22T11:41:28;28.30;99.90
46458;DHT22;32155;54.076;12.092;2022-07-22T11:43:53;29.80;99.90
46458;DHT22;32155;54.076;12.092;2022-07-22T11:46:23;29.50;99.90
46458;DHT22;32155;54.076;12.092;2022-07-22T11:48:51;29.30;99.90
46458;DHT22;32155;54.076;12.092;2022-07-22T11:51:17;28.80;99.90
46458;DHT22;32155;54.076;12.092;2022-07-22T11:53:48;30.40;99.90
46458;DHT22;32155;54.076;12.092;2022-07-22T11:56:14;32.80;99.90
46458;DHT22;32155;54.076;12.092;2022-07-22T11:58:46;34.00;96.20
46458;DHT22;32155;54.076;12.092;2022-07-22T12:01:13;32.40;95.60
46458;DHT22;32155;54.076;12.092;2022-07-22T12:03:40;33.00;96.20
46458;DHT22;32155;54.076;12.092;2022-07-22T12:06:08;33.20;95.10
46458;DHT22;32155;54.076;12.092;2022-07-22T12:08:34;32.00;94.30
46458;DHT22;32155;54.076;12.092;2022-07-22T12:13:32;31.10;96.20
46458;DHT22;32155;54.076;12.092;2022-07-22T12:15:58;31.70;94.80
46458;DHT22;32155;54.076;12.092;2022-07-22T12:18:24;31.40;95.00
46458;DHT22;32155;54.076;12.092;2022-07-22T12:20:53;32.30;95.60
46458;DHT22;32155;54.076;12.092;2022-07-22T12:23:19;32.00;94.00
46458;DHT22;32155;54.076;12.092;2022-07-22T12:26:07;30.70;95.30
46458;DHT22;32155;54.076;12.092;2022-07-22T12:28:33;30.30;96.50
46458;DHT22;32155;54.076;12.092;2022-07-22T12:30:58;30.20;96.10
46458;DHT22;32155;54.076;12.092;2022-07-22T12:33:24;29.30;96.90
46458;DHT22;32155;54.076;12.092;2022-07-22T12:38:24;30.50;97.00
46458;DHT22;32155;54.076;12.092;2022-07-22T12:40:50;29.70;98.10
46458;DHT22;32155;54.076;12.092;2022-07-22T12:43:16;30.00;97.50
46458;DHT22;32155;54.076;12.092;2022-07-22T12:45:42;29.70;96.40
46458;DHT22;32155;54.076;12.092;2022-07-22T12:48:09;28.60;98.70
46458;DHT22;32155;54.076;12.092;2022-07-22T12:50:42;29.40;98.00
46458;DHT22;32155;54.076;12.092;2022-07-22T12:53:11;28.60;97.60
46458;DHT22;32155;54.076;12.092;2022-07-22T12:55:47;28.40;98.20
46458;DHT22;32155;54.076;12.092;2022-07-22T12:58:13;28.50;97.80
46458;DHT22;32155;54.076;12.092;2022-07-22T13:00:46;28.00;98.00
46458;DHT22;32155;54.076;12.092;2022-07-22T13:03:12;27.70;98.90
46458;DHT22;32155;54.076;12.092;2022-07-22T13:05:37;27.50;99.90
46458;DHT22;32155;54.076;12.092;2022-07-22T13:08:03;27.30;99.90
46458;DHT22;32155;54.076;12.092;2022-07-22T13:10:29;27.40;99.90
46458;DHT22;32155;54.076;12.092;2022-07-22T13:12:55;26.80;99.90
46458;DHT22;32155;54.076;12.092;2022-07-22T13:15:20;27.00;99.90
46458;DHT22;32155;54.076;12.092;2022-07-22T13:17:46;27.60;99.90
46458;DHT22;32155;54.076;12.092;2022-07-22T13:20:13;27.50;99.90
46458;DHT22;32155;54.076;12.092;2022-07-22T13:22:39;27.50;99.90
46458;DHT22;32155;54.076;12.092;2022-07-22T13:25:04;27.10;99.90
46458;DHT22;32155;54.076;12.092;2022-07-22T13:27:30;26.90;99.90
46458;DHT22;32155;54.076;12.092;2022-07-22T13:29:58;27.20;99.90
46458;DHT22;32155;54.076;12.092;2022-07-22T13:32:39;27.40;99.90
46458;DHT22;32155;54.076;12.092;2022-07-22T13:35:05;27.40;99.90
46458;DHT22;32155;54.076;12.092;2022-07-22T13:37:31;27.50;99.90
46458;DHT22;32155;54.076;12.092;2022-07-22T13:39:56;27.60;99.90
46458;DHT22;32155;54.076;12.092;2022-07-22T13:42:22;27.30;99.90
46458;DHT22;32155;54.076;12.092;2022-07-22T13:44:48;27.60;99.90
46458;DHT22;32155;54.076;12.092;2022-07-22T13:47:16;28.00;99.90
46458;DHT22;32155;54.076;12.092;2022-07-22T13:49:42;27.90;99.90
46458;DHT22;32155;54.076;12.092;2022-07-22T13:52:09;27.60;99.90
46458;DHT22;32155;54.076;12.092;2022-07-22T13:54:35;27.40;99.90
46458;DHT22;32155;54.076;12.092;2022-07-22T13:57:01;27.30;99.90
46458;DHT22;32155;54.076;12.092;2022-07-22T13:59:28;26.80;99.90
46458;DHT22;32155;54.076;12.092;2022-07-22T14:01:55;26.70;99.90
46458;DHT22;32155;54.076;12.092;2022-07-22T14:04:20;26.70;99.90
46458;DHT22;32155;54.076;12.092;2022-07-22T14:06:46;26.70;99.90
46458;DHT22;32155;54.076;12.092;2022-07-22T14:09:11;26.70;99.90
46458;DHT22;32155;54.076;12.092;2022-07-22T14:11:40;26.50;99.90
46458;DHT22;32155;54.076;12.092;2022-07-22T14:14:08;26.50;99.90
46458;DHT22;32155;54.076;12.092;2022-07-22T14:16:34;26.70;99.90
46458;DHT22;32155;54.076;12.092;2022-07-22T14:19:07;26.50;99.90
46458;DHT22;32155;54.076;12.092;2022-07-22T14:21:33;26.30;99.90
46458;DHT22;32155;54.076;12.092;2022-07-22T14:24:13;26.30;99.90
46458;DHT22;32155;54.076;12.092;2022-07-22T14:26:41;26.30;99.90
46458;DHT22;32155;54.076;12.092;2022-07-22T14:29:08;26.40;99.90
46458;DHT22;32155;54.076;12.092;2022-07-22T14:31:35;26.10;99.90
46458;DHT22;32155;54.076;12.092;2022-07-22T14:34:01;25.90;99.90
46458;DHT22;32155;54.076;12.092;2022-07-22T14:36:27;25.60;99.90
46458;DHT22;32155;54.076;12.092;2022-07-22T14:38:52;25.50;99.90
46458;DHT22;32155;54.076;12.092;2022-07-22T14:41:21;25.30;99.90
46458;DHT22;32155;54.076;12.092;2022-07-22T14:43:47;24.90;99.90
46458;DHT22;32155;54.076;12.092;2022-07-22T14:46:12;24.70;99.90
46458;DHT22;32155;54.076;12.092;2022-07-22T14:48:38;24.60;99.90
46458;DHT22;32155;54.076;12.092;2022-07-22T14:51:04;24.60;99.90
46458;DHT22;32155;54.076;12.092;2022-07-22T14:53:29;24.60;99.90
46458;DHT22;32155;54.076;12.092;2022-07-22T14:55:56;24.40;99.90
46458;DHT22;32155;54.076;12.092;2022-07-22T14:58:24;24.30;99.90
46458;DHT22;32155;54.076;12.092;2022-07-22T15:00:49;24.50;99.90
46458;DHT22;32155;54.076;12.092;2022-07-22T15:03:15;24.30;99.90
46458;DHT22;32155;54.076;12.092;2022-07-22T15:05:44;24.40;99.90
46458;DHT22;32155;54.076;12.092;2022-07-22T15:08:09;24.40;99.90
46458;DHT22;32155;54.076;12.092;2022-07-22T15:10:35;24.20;99.90
46458;DHT22;32155;54.076;12.092;2022-07-22T15:13:03;24.20;99.90
46458;DHT22;32155;54.076;12.092;2022-07-22T15:15:29;24.60;99.90
46458;DHT22;32155;54.076;12.092;2022-07-22T15:17:54;24.50;99.90
46458;DHT22;32155;54.076;12.092;2022-07-22T15:20:20;24.60;99.90
46458;DHT22;32155;54.076;12.092;2022-07-22T15:22:45;24.60;99.90
46458;DHT22;32155;54.076;12.092;2022-07-22T15:25:11;24.40;99.90
46458;DHT22;32155;54.076;12.092;2022-07-22T15:27:37;24.40;99.90
46458;DHT22;32155;54.076;12.092;2022-07-22T15:30:04;24.10;99.90
46458;DHT22;32155;54.076;12.092;2022-07-22T15:32:30;23.80;99.90
46458;DHT22;32155;54.076;12.092;2022-07-22T15:34:58;23.60;99.90
46458;DHT22;32155;54.076;12.092;2022-07-22T15:37:24;23.40;99.90
46458;DHT22;32155;54.076;12.092;2022-07-22T15:39:50;23.20;99.90
46458;DHT22;32155;54.076;12.092;2022-07-22T15:42:20;23.40;99.90
46458;DHT22;32155;54.076;12.092;2022-07-22T15:44:45;23.50;99.90
46458;DHT22;32155;54.076;12.092;2022-07-22T15:47:13;23.70;99.90
46458;DHT22;32155;54.076;12.092;2022-07-22T15:49:41;23.70;99.90
46458;DHT22;32155;54.076;12.092;2022-07-22T15:52:07;23.70;99.90
46458;DHT22;32155;54.076;12.092;2022-07-22T15:54:32;23.50;99.90
46458;DHT22;32155;54.076;12.092;2022-07-22T15:57:03;23.30;99.90
46458;DHT22;32155;54.076;12.092;2022-07-22T15:59:47;23.20;99.90
46458;DHT22;32155;54.076;12.092;2022-07-22T16:02:14;23.10;99.90
46458;DHT22;32155;54.076;12.092;2022-07-22T16:07:58;23.20;99.90
46458;DHT22;32155;54.076;12.092;2022-07-22T16:13:48;23.00;99.90
46458;DHT22;32155;54.076;12.092;2022-07-22T16:16:14;22.80;99.90
46458;DHT22;32155;54.076;12.092;2022-07-22T16:18:39;22.80;99.90
46458;DHT22;32155;54.076;12.092;2022-07-22T16:21:05;22.80;99.90
46458;DHT22;32155;54.076;12.092;2022-07-22T16:23:30;23.00;99.90
46458;DHT22;32155;54.076;12.092;2022-07-22T16:25:56;23.00;99.90
46458;DHT22;32155;54.076;12.092;2022-07-22T16:28:22;22.90;99.90
46458;DHT22;32155;54.076;12.092;2022-07-22T16:30:48;22.80;99.90
46458;DHT22;32155;54.076;12.092;2022-07-22T16:33:13;22.70;99.90
46458;DHT22;32155;54.076;12.092;2022-07-22T16:35:39;22.70;99.90
46458;DHT22;32155;54.076;12.092;2022-07-22T16:38:04;22.70;99.90
46458;DHT22;32155;54.076;12.092;2022-07-22T16:40:30;22.60;99.90
46458;DHT22;32155;54.076;12.092;2022-07-22T16:42:56;22.50;99.90
46458;DHT22;32155;54.076;12.092;2022-07-22T16:45:25;22.40;99.90
46458;DHT22;32155;54.076;12.092;2022-07-22T16:48:03;22.20;99.90
46458;DHT22;32155;54.076;12.092;2022-07-22T16:50:36;22.10;99.90
46458;DHT22;32155;54.076;12.092;2022-07-22T16:53:22;22.10;99.90
46458;DHT22;32155;54.076;12.092;2022-07-22T16:55:54;22.00;99.90
46458;DHT22;32155;54.076;12.092;2022-07-22T16:58:31;22.10;99.90
46458;DHT22;32155;54.076;12.092;2022-07-22T17:01:00;22.10;99.90
46458;DHT22;32155;54.076;12.092;2022-07-22T17:31:42;21.30;99.90
46458;DHT22;32155;54.076;12.092;2022-07-22T17:34:20;21.20;99.90
46458;DHT22;32155;54.076;12.092;2022-07-22T17:40:06;21.00;99.90
46458;DHT22;32155;54.076;12.092;2022-07-22T17:48:44;20.80;99.90
46458;DHT22;32155;54.076;12.092;2022-07-22T17:57:35;20.50;99.90
46458;DHT22;32155;54.076;12.092;2022-07-22T18:15:47;20.10;99.90
46458;DHT22;32155;54.076;12.092;2022-07-22T19:32:05;17.60;99.90
46458;DHT22;32155;54.076;12.092;2022-07-22T19:34:30;17.50;99.90
46458;DHT22;32155;54.076;12.092;2022-07-22T19:36:59;17.50;99.90
46458;DHT22;32155;54.076;12.092;2022-07-22T19:39:24;17.40;99.90
46458;DHT22;32155;54.076;12.092;2022-07-22T19:42:53;17.40;99.90
46458;DHT22;32155;54.076;12.092;2022-07-22T19:48:25;17.30;99.90
46458;DHT22;32155;54.076;12.092;2022-07-22T19:54:38;17.20;99.90
46458;DHT22;32155;54.076;12.092;2022-07-22T19:57:09;17.10;99.90
46458;DHT22;32155;54.076;12.092;2022-07-22T20:02:38;17.00;99.90
46458;DHT22;32155;54.076;12.092;2022-07-22T20:07:45;16.90;99.90
46458;DHT22;32155;54.076;12.092;2022-07-22T20:10:30;16.90;99.90
46458;DHT22;32155;54.076;12.092;2022-07-22T20:13:08;16.90;99.90
46458;DHT22;32155;54.076;12.092;2022-07-22T20:22:49;16.70;99.90
46458;DHT22;32155;54.076;12.092;2022-07-22T20:35:03;16.50;99.90
46458;DHT22;32155;54.076;12.092;2022-07-22T20:37:45;16.40;99.90
46458;DHT22;32155;54.076;12.092;2022-07-22T20:44:17;16.30;99.90
46458;DHT22;32155;54.076;12.092;2022-07-22T20:46:58;16.30;99.90
